Erandio, Spain
Current Conditions -  °F | °C
As of 7:30 AM on Saturday 20 Dec 2014 (Local Time) from LEBB Reporting Station
Broken Clouds Broken Clouds  
Wind Chill: 12°   Ceiling: 2000
Heat Index: 12°   Visibility: 6mi
Dew Point:   Wind: 0mph
Humidity: 82%   Direction: NA
Pressure: 30.53"   Gusts: NA
Location:  43.31°N, 2.95°W
Report Text: LEBB 200630Z 00000KT 9999 BKN020 BKN028 12/09 Q1034 NOSIG
Loading
Personal Weather Stations






























Interactive Weather Map New forecast layout! Learn more

10-Day Weather Forecast

Advertisements
Track Severe Weather on mobile